createdAt,value
2018-08-16T00:01:34.009Z,77.23
2018-08-16T00:04:02.289Z,76.82
2018-08-16T00:06:31.636Z,77.10
2018-08-16T00:08:59.929Z,77.07
2018-08-16T00:11:28.225Z,77.07
2018-08-16T00:13:56.481Z,77.55
2018-08-16T00:16:24.848Z,77.53
2018-08-16T00:18:53.168Z,77.70
2018-08-16T00:21:21.457Z,77.25
2018-08-16T00:23:49.723Z,77.24
2018-08-16T00:26:18.022Z,77.01
2018-08-16T00:28:46.300Z,77.20
2018-08-16T00:31:14.606Z,77.43
2018-08-16T00:33:42.857Z,78.02
2018-08-16T00:36:11.145Z,78.20
2018-08-16T00:38:39.424Z,78.22
2018-08-16T00:41:07.708Z,78.01
2018-08-16T00:43:35.978Z,77.91
2018-08-16T00:46:04.274Z,77.98
2018-08-16T00:48:32.694Z,78.16
2018-08-16T00:51:00.973Z,78.00
2018-08-16T00:53:29.256Z,78.69
2018-08-16T00:55:57.616Z,79.17
2018-08-16T00:58:25.936Z,78.68
2018-08-16T01:00:54.297Z,78.64
2018-08-16T01:03:22.688Z,78.54
2018-08-16T01:05:50.953Z,78.82
2018-08-16T01:08:19.325Z,79.11
2018-08-16T01:10:47.589Z,78.82
2018-08-16T01:13:15.898Z,78.95
2018-08-16T01:15:45.250Z,78.97
2018-08-16T01:18:13.585Z,78.65
2018-08-16T01:20:41.889Z,79.13
2018-08-16T01:23:10.216Z,79.13
2018-08-16T01:25:40.622Z,79.14
2018-08-16T01:28:09.865Z,78.95
2018-08-16T01:30:38.196Z,78.83
2018-08-16T01:33:06.628Z,78.86
2018-08-16T01:35:34.980Z,79.17
2018-08-16T01:38:03.232Z,78.86
2018-08-16T01:40:31.489Z,79.40
2018-08-16T01:42:59.773Z,79.22
2018-08-16T01:45:31.257Z,79.36
2018-08-16T01:47:59.529Z,79.36
2018-08-16T01:50:28.885Z,79.02
2018-08-16T01:52:57.144Z,79.65
2018-08-16T01:55:25.453Z,79.63
2018-08-16T01:57:53.712Z,79.97
2018-08-16T02:00:22.077Z,79.48
2018-08-16T02:02:50.345Z,79.66
2018-08-16T02:05:18.754Z,79.34
2018-08-16T02:07:47.906Z,79.24
2018-08-16T02:10:16.173Z,79.25
2018-08-16T02:12:44.480Z,78.57
2018-08-16T02:15:13.444Z,78.91
2018-08-16T02:17:42.093Z,79.81
2018-08-16T02:20:12.553Z,79.42
2018-08-16T02:22:41.105Z,79.32
2018-08-16T02:25:09.385Z,79.07
2018-08-16T02:32:25.566Z,79.31
2018-08-16T02:34:53.875Z,78.41
2018-08-16T02:37:22.146Z,78.44
2018-08-16T02:39:50.405Z,77.80
2018-08-16T02:42:19.121Z,77.46
2018-08-16T02:44:47.413Z,77.60
2018-08-16T02:47:15.782Z,76.87
2018-08-16T02:49:44.037Z,76.72
2018-08-16T02:52:12.350Z,76.75
2018-08-16T02:54:40.602Z,77.16
2018-08-16T02:57:08.921Z,76.57
2018-08-16T02:59:37.168Z,77.07
2018-08-16T03:02:05.515Z,77.37
2018-08-16T03:04:33.773Z,76.99
2018-08-16T03:07:02.129Z,77.29
2018-08-16T03:09:31.426Z,77.34
2018-08-16T03:11:59.705Z,77.31
2018-08-16T03:14:27.985Z,77.77
2018-08-16T03:16:56.325Z,77.86
2018-08-16T03:19:24.581Z,78.03
2018-08-16T03:21:52.872Z,77.93
2018-08-16T03:24:22.241Z,78.36
2018-08-16T03:26:50.531Z,78.50
2018-08-16T03:29:19.897Z,78.22
2018-08-16T03:31:48.228Z,78.35
2018-08-16T03:34:16.518Z,78.53
2018-08-16T03:36:44.784Z,78.78
2018-08-16T03:39:16.222Z,79.00
2018-08-16T03:41:44.477Z,79.45
2018-08-16T03:44:12.755Z,79.42
2018-08-16T03:46:41.053Z,78.86
2018-08-16T03:49:09.345Z,79.28
2018-08-16T03:51:37.618Z,79.96
2018-08-16T03:54:06.172Z,80.03
2018-08-16T03:56:34.435Z,80.23
2018-08-16T03:59:03.821Z,80.08
2018-08-16T04:01:32.121Z,79.82
2018-08-16T04:04:00.406Z,79.94
2018-08-16T04:06:28.677Z,79.23
2018-08-16T04:08:56.989Z,78.95
2018-08-16T04:11:25.269Z,78.53
2018-08-16T04:13:53.553Z,78.79
2018-08-16T04:16:22.945Z,78.41
2018-08-16T04:18:51.302Z,78.79
2018-08-16T04:21:22.765Z,78.75
2018-08-16T04:23:52.089Z,79.02
2018-08-16T04:26:20.341Z,79.20
2018-08-16T04:28:48.701Z,78.79
2018-08-16T04:31:16.988Z,78.80
2018-08-16T04:33:45.282Z,78.98
2018-08-16T04:36:14.590Z,78.64
2018-08-16T04:38:44.404Z,78.54
2018-08-16T04:41:12.701Z,78.36
2018-08-16T04:43:41.037Z,78.50
2018-08-16T04:46:12.965Z,78.59
2018-08-16T04:48:41.338Z,78.65
2018-08-16T04:51:10.709Z,77.57
2018-08-16T04:53:38.985Z,77.15
2018-08-16T04:56:07.413Z,76.64
2018-08-16T04:58:35.681Z,76.43
2018-08-16T05:01:03.986Z,74.66
2018-08-16T05:03:32.224Z,74.29
2018-08-16T05:06:00.553Z,74.50
2018-08-16T05:08:28.828Z,73.94
2018-08-16T05:10:57.110Z,74.04
2018-08-16T05:13:25.356Z,73.46
2018-08-16T05:15:53.640Z,73.60
2018-08-16T05:18:21.912Z,72.82
2018-08-16T05:20:50.164Z,72.06
2018-08-16T05:23:18.456Z,72.41
2018-08-16T05:25:46.741Z,71.68
2018-08-16T05:28:15.043Z,70.87
2018-08-16T05:30:43.296Z,70.63
2018-08-16T05:33:11.609Z,69.77
2018-08-16T05:35:39.869Z,69.08
2018-08-16T05:38:08.178Z,69.66
2018-08-16T05:40:36.437Z,68.84
2018-08-16T05:43:04.836Z,69.31
2018-08-16T05:45:33.006Z,68.04
2018-08-16T05:48:01.314Z,67.80
2018-08-16T05:50:29.558Z,67.41
2018-08-16T05:52:57.833Z,66.22
2018-08-16T05:55:26.073Z,65.68
2018-08-16T05:57:55.349Z,65.57
2018-08-16T06:00:23.616Z,65.03
2018-08-16T06:02:51.892Z,64.28
2018-08-16T06:05:20.141Z,64.36
2018-08-16T06:07:48.437Z,63.85
2018-08-16T06:10:16.677Z,64.17
2018-08-16T06:12:44.958Z,63.45
2018-08-16T06:15:14.314Z,63.94
2018-08-16T06:17:42.605Z,62.92
2018-08-16T06:20:12.513Z,62.61
2018-08-16T06:22:41.132Z,62.18
2018-08-16T06:25:11.589Z,61.02
2018-08-16T06:27:39.880Z,60.88
2018-08-16T06:30:11.432Z,62.14
2018-08-16T06:32:39.741Z,62.94
2018-08-16T06:35:08.013Z,62.91
2018-08-16T06:37:37.464Z,61.82
2018-08-16T06:40:07.922Z,61.84
2018-08-16T06:42:36.245Z,62.85
2018-08-16T06:45:05.157Z,62.11
2018-08-16T06:47:33.474Z,62.39
2018-08-16T06:50:01.780Z,61.88
2018-08-16T06:52:30.111Z,61.21
2018-08-16T06:54:59.400Z,61.56
2018-08-16T06:57:28.664Z,61.65
2018-08-16T06:59:56.999Z,61.32
2018-08-16T07:02:27.665Z,62.22
2018-08-16T07:04:56.389Z,61.69
2018-08-16T07:07:24.629Z,60.41
2018-08-16T07:09:52.993Z,60.25
2018-08-16T07:12:21.366Z,60.29
2018-08-16T07:14:49.562Z,59.93
2018-08-16T07:17:17.874Z,58.68
2018-08-16T07:19:46.328Z,57.02
2018-08-16T07:22:14.649Z,56.43
2018-08-16T07:24:42.968Z,58.81
2018-08-16T07:27:11.361Z,59.08
2018-08-16T07:29:39.613Z,57.28
2018-08-16T07:32:07.981Z,56.14
2018-08-16T07:34:36.230Z,56.10
2018-08-16T07:37:04.511Z,56.78
2018-08-16T07:39:32.790Z,57.30
2018-08-16T07:42:01.094Z,57.01
2018-08-16T07:44:29.377Z,57.65
2018-08-16T07:46:57.729Z,58.12
2018-08-16T07:49:26.042Z,56.48
2018-08-16T07:51:54.320Z,55.58
2018-08-16T07:54:22.576Z,56.64
2018-08-16T07:56:50.859Z,56.46
2018-08-16T07:59:19.342Z,56.11
2018-08-16T08:01:47.661Z,55.74
2018-08-16T08:04:15.946Z,55.18
2018-08-16T08:06:44.231Z,54.71
2018-08-16T08:09:13.699Z,55.52
2018-08-16T08:11:41.857Z,55.25
2018-08-16T08:14:10.129Z,54.03
2018-08-16T08:16:38.394Z,53.67
2018-08-16T08:19:06.733Z,54.72
2018-08-16T08:21:34.988Z,55.53
2018-08-16T08:24:03.281Z,55.61
2018-08-16T08:26:31.569Z,54.84
2018-08-16T08:28:59.892Z,55.59
2018-08-16T08:31:28.585Z,55.03
2018-08-16T08:33:56.861Z,56.29
2018-08-16T08:36:36.369Z,55.83
2018-08-16T08:39:07.183Z,54.61
2018-08-16T08:41:35.433Z,56.15
2018-08-16T08:44:21.057Z,55.42
2018-08-16T08:46:50.454Z,55.17
2018-08-16T08:49:18.955Z,54.49
2018-08-16T08:51:48.023Z,54.56
2018-08-16T08:54:43.095Z,53.91
2018-08-16T08:57:22.716Z,53.31
2018-08-16T08:59:51.001Z,53.30
2018-08-16T09:02:19.269Z,53.03
2018-08-16T09:04:47.596Z,52.63
2018-08-16T09:07:17.219Z,52.73
2018-08-16T09:10:56.899Z,53.27
2018-08-16T09:13:37.166Z,51.59
2018-08-16T09:16:11.145Z,51.26
2018-08-16T09:18:39.513Z,51.47
2018-08-16T09:21:08.420Z,51.52
2018-08-16T09:23:36.677Z,51.75
2018-08-16T09:26:10.396Z,50.50
2018-08-16T09:28:38.989Z,49.79
2018-08-16T09:31:18.713Z,48.82
2018-08-16T09:33:58.530Z,49.49
2018-08-16T09:36:26.838Z,50.18
2018-08-16T09:38:55.662Z,48.46
2018-08-16T09:41:24.061Z,48.44
2018-08-16T09:43:52.321Z,48.24
2018-08-16T09:47:03.320Z,47.59
2018-08-16T09:49:36.299Z,47.97
2018-08-16T09:52:05.537Z,47.16
2018-08-16T09:54:33.948Z,45.80
2018-08-16T09:57:03.425Z,45.90
2018-08-16T09:59:31.673Z,45.74
2018-08-16T10:02:00.012Z,44.43
2018-08-16T10:04:28.819Z,43.91
2018-08-16T10:06:57.283Z,45.53
2018-08-16T10:09:26.609Z,45.60
2018-08-16T10:11:55.734Z,47.36
2018-08-16T10:14:24.037Z,47.19
2018-08-16T10:16:52.332Z,47.98
2018-08-16T10:19:20.738Z,47.67
2018-08-16T10:21:49.059Z,48.29
2018-08-16T10:24:17.329Z,47.70
2018-08-16T10:26:45.605Z,47.05
2018-08-16T10:29:13.957Z,46.04
2018-08-16T10:31:42.248Z,45.43
2018-08-16T10:34:10.537Z,44.51
2018-08-16T10:36:38.854Z,45.56
2018-08-16T10:39:10.860Z,46.01
2018-08-16T10:41:39.189Z,47.38
2018-08-16T10:44:07.530Z,47.28
2018-08-16T10:46:35.885Z,45.92
2018-08-16T10:49:04.195Z,45.63
2018-08-16T10:51:32.514Z,45.58
2018-08-16T10:54:00.809Z,44.73
2018-08-16T10:56:29.172Z,44.37
2018-08-16T10:58:57.461Z,44.32
2018-08-16T11:01:25.771Z,45.11
2018-08-16T11:03:54.529Z,45.52
2018-08-16T11:06:22.806Z,46.58
2018-08-16T11:08:51.097Z,47.74
2018-08-16T11:11:19.355Z,48.07
2018-08-16T11:13:47.636Z,47.97
2018-08-16T11:16:15.884Z,45.67
2018-08-16T11:18:44.234Z,44.54
2018-08-16T11:21:12.490Z,42.84
2018-08-16T11:23:40.790Z,43.90
2018-08-16T11:26:09.104Z,42.84
2018-08-16T11:28:37.369Z,43.56
2018-08-16T11:31:06.018Z,42.83
2018-08-16T11:33:34.329Z,43.26
2018-08-16T11:36:02.590Z,40.61
2018-08-16T11:38:30.848Z,43.11
2018-08-16T11:40:59.130Z,42.48
2018-08-16T11:43:27.481Z,42.02
2018-08-16T11:45:55.786Z,42.30
2018-08-16T11:48:24.075Z,41.53
2018-08-16T11:50:52.358Z,42.04
2018-08-16T11:53:20.609Z,41.43
2018-08-16T11:55:48.918Z,42.91
2018-08-16T11:58:17.216Z,44.17
2018-08-16T12:00:45.645Z,44.00
2018-08-16T12:03:13.905Z,44.09
2018-08-16T12:05:42.195Z,43.54
2018-08-16T12:08:10.457Z,43.36
2018-08-16T12:10:38.787Z,42.84
2018-08-16T12:13:07.070Z,42.86
2018-08-16T12:15:35.371Z,43.34
2018-08-16T12:18:03.637Z,41.97
2018-08-16T12:20:31.909Z,42.02
2018-08-16T12:23:00.203Z,41.61
2018-08-16T12:25:28.502Z,40.47
2018-08-16T12:27:56.746Z,41.10
2018-08-16T12:30:24.985Z,41.20
2018-08-16T12:32:53.273Z,39.99
2018-08-16T12:35:21.521Z,39.92
2018-08-16T12:37:49.859Z,41.05
2018-08-16T12:40:18.046Z,40.16
2018-08-16T12:42:46.392Z,40.18
2018-08-16T12:45:14.685Z,39.79
2018-08-16T12:47:43.077Z,40.60
2018-08-16T12:50:11.266Z,39.34
2018-08-16T12:52:39.555Z,38.95
2018-08-16T12:55:07.933Z,39.65
2018-08-16T12:57:36.209Z,41.12
2018-08-16T13:00:05.357Z,41.23
2018-08-16T13:02:33.678Z,39.98
2018-08-16T13:05:01.938Z,38.27
2018-08-16T13:07:30.223Z,38.15
2018-08-16T13:09:58.473Z,37.14
2018-08-16T13:12:27.809Z,36.44
2018-08-16T13:14:56.126Z,37.61
2018-08-16T13:17:24.349Z,37.25
2018-08-16T13:19:52.598Z,37.53
2018-08-16T13:22:20.993Z,38.48
2018-08-16T13:24:49.261Z,38.72
2018-08-16T13:27:17.509Z,38.99
2018-08-16T13:29:45.775Z,39.33
2018-08-16T13:32:14.019Z,38.90
2018-08-16T13:34:42.294Z,38.50
2018-08-16T13:37:10.831Z,37.52
2018-08-16T13:39:39.094Z,36.03
2018-08-16T13:42:07.377Z,34.16
2018-08-16T13:44:35.689Z,32.91
2018-08-16T13:47:04.098Z,34.21
2018-08-16T13:49:32.412Z,34.35
2018-08-16T13:52:00.662Z,33.60
2018-08-16T13:54:28.988Z,34.07
2018-08-16T13:56:57.237Z,35.94
2018-08-16T13:59:25.509Z,34.25
2018-08-16T14:01:53.824Z,33.02
2018-08-16T14:04:22.157Z,33.27
2018-08-16T14:06:50.448Z,33.26
2018-08-16T14:09:18.765Z,31.96
2018-08-16T14:11:47.061Z,34.05
2018-08-16T14:14:15.304Z,32.53
2018-08-16T14:16:43.622Z,31.26
2018-08-16T14:19:11.877Z,31.24
2018-08-16T14:21:40.157Z,31.22
2018-08-16T14:24:08.417Z,30.94
2018-08-16T14:26:36.693Z,31.98
2018-08-16T14:29:04.945Z,33.38
2018-08-16T14:31:33.226Z,32.47
2018-08-16T14:34:01.481Z,31.81
2018-08-16T14:36:29.761Z,30.14
2018-08-16T14:38:58.020Z,30.01
2018-08-16T14:41:26.411Z,31.79
2018-08-16T14:43:54.665Z,33.34
2018-08-16T14:46:22.941Z,33.06
2018-08-16T14:48:51.345Z,33.50
2018-08-16T14:51:19.649Z,33.95
2018-08-16T14:53:47.897Z,32.79
2018-08-16T14:56:16.182Z,31.72
2018-08-16T14:58:44.446Z,30.22
2018-08-16T15:01:12.737Z,29.75
2018-08-16T15:03:40.988Z,28.96
2018-08-16T15:06:09.401Z,26.96
2018-08-16T15:08:37.701Z,25.48
2018-08-16T15:11:06.270Z,25.60
2018-08-16T15:13:34.625Z,24.68
2018-08-16T15:16:02.965Z,24.51
2018-08-16T15:18:31.278Z,24.12
2018-08-16T15:20:59.565Z,21.27
2018-08-16T15:23:28.037Z,20.96
2018-08-16T15:25:56.705Z,20.50
2018-08-16T15:28:25.144Z,20.45
2018-08-16T15:30:55.686Z,21.72
2018-08-16T15:33:24.058Z,22.14
2018-08-16T15:35:52.626Z,23.64
2018-08-16T15:38:20.931Z,24.31
2018-08-16T15:40:49.237Z,22.67
2018-08-16T15:43:17.485Z,22.17
2018-08-16T15:45:47.773Z,22.36
2018-08-16T15:48:18.092Z,23.59
2018-08-16T15:50:46.529Z,21.17
2018-08-16T15:53:15.110Z,22.74
2018-08-16T15:55:43.409Z,21.75
2018-08-16T15:58:12.050Z,23.37
2018-08-16T16:00:40.313Z,21.72
2018-08-16T16:03:08.580Z,24.52
2018-08-16T16:05:37.960Z,25.56
2018-08-16T16:08:06.220Z,27.52
2018-08-16T16:10:35.537Z,25.62
2018-08-16T16:13:03.809Z,24.53
2018-08-16T16:15:32.105Z,27.25
2018-08-16T16:18:00.374Z,27.40
2018-08-16T16:20:28.724Z,25.63
2018-08-16T16:22:56.993Z,24.77
2018-08-16T16:25:25.372Z,26.03
2018-08-16T16:27:53.641Z,29.13
2018-08-16T16:30:21.938Z,29.09
2018-08-16T16:32:50.212Z,28.08
2018-08-16T16:35:18.513Z,25.60
2018-08-16T16:37:46.778Z,25.13
2018-08-16T16:40:15.154Z,26.15
2018-08-16T16:42:43.429Z,24.33
2018-08-16T16:45:11.771Z,24.95
2018-08-16T16:47:40.037Z,28.08
2018-08-16T16:50:09.241Z,26.73
2018-08-16T16:52:37.507Z,29.63
2018-08-16T16:55:05.829Z,28.80
2018-08-16T16:57:34.370Z,27.68
2018-08-16T17:00:02.663Z,30.22
2018-08-16T17:02:30.941Z,32.51
2018-08-16T17:05:00.209Z,35.00
2018-08-16T17:07:28.567Z,37.10
2018-08-16T17:09:56.793Z,39.16
2018-08-16T17:12:25.097Z,40.68
2018-08-16T17:14:53.345Z,39.81
2018-08-16T17:17:21.629Z,41.13
2018-08-16T17:19:50.173Z,41.89
2018-08-16T17:22:18.785Z,44.12
2018-08-16T17:24:47.069Z,44.52
2018-08-16T17:27:15.389Z,45.19
2018-08-16T17:29:43.753Z,46.45
2018-08-16T17:32:12.122Z,45.88
2018-08-16T17:34:40.337Z,46.45
2018-08-16T17:37:08.645Z,47.81
2018-08-16T17:39:36.905Z,47.66
2018-08-16T17:42:05.234Z,48.51
2018-08-16T17:44:33.529Z,49.58
2018-08-16T17:47:01.886Z,49.75
2018-08-16T17:49:30.173Z,50.11
2018-08-16T17:51:58.464Z,50.24
2018-08-16T17:54:26.836Z,50.55
2018-08-16T17:56:55.105Z,50.50
2018-08-16T17:59:23.397Z,51.14
2018-08-16T18:01:51.665Z,50.96
2018-08-16T18:04:20.037Z,51.48
2018-08-16T18:06:48.300Z,51.31
2018-08-16T18:09:16.632Z,51.68
2018-08-16T18:11:44.924Z,50.74
2018-08-16T18:14:13.249Z,51.08
2018-08-16T18:16:41.509Z,52.13
2018-08-16T18:19:09.923Z,52.16
2018-08-16T18:21:38.177Z,52.40
2018-08-16T18:24:06.485Z,52.79
2018-08-16T18:26:34.747Z,53.42
2018-08-16T18:29:03.029Z,53.56
2018-08-16T18:31:31.293Z,54.22
2018-08-16T18:33:59.653Z,54.84
2018-08-16T18:36:27.970Z,54.37
2018-08-16T18:38:56.260Z,54.48
2018-08-16T18:41:24.529Z,55.52
2018-08-16T18:43:52.773Z,54.51
2018-08-16T18:46:21.058Z,55.20
2018-08-16T18:48:49.365Z,55.66
2018-08-16T18:51:17.657Z,56.22
2018-08-16T18:53:45.904Z,55.39
2018-08-16T18:56:14.233Z,56.02
2018-08-16T18:58:42.496Z,56.26
2018-08-16T19:01:10.795Z,56.44
2018-08-16T19:03:39.153Z,56.67
2018-08-16T19:06:07.474Z,56.48
2018-08-16T19:08:35.728Z,56.30
2018-08-16T19:11:04.001Z,56.85
2018-08-16T19:13:32.269Z,56.45
2018-08-16T19:16:00.572Z,57.00
2018-08-16T19:18:28.838Z,56.54
2018-08-16T19:20:57.109Z,57.50
2018-08-16T19:23:25.368Z,57.28
2018-08-16T19:25:53.669Z,57.75
2018-08-16T19:28:21.957Z,57.34
2018-08-16T19:30:50.241Z,58.17
2018-08-16T19:33:18.506Z,58.01
2018-08-16T19:35:46.989Z,57.78
2018-08-16T19:38:15.085Z,58.76
2018-08-16T19:40:43.385Z,58.46
2018-08-16T19:43:11.713Z,59.27
2018-08-16T19:45:39.961Z,59.60
2018-08-16T19:48:08.457Z,58.88
2018-08-16T19:50:36.581Z,59.44
2018-08-16T19:53:04.930Z,58.91
2018-08-16T19:55:33.177Z,59.15
2018-08-16T19:58:01.505Z,59.46
2018-08-16T20:00:29.765Z,59.98
2018-08-16T20:02:58.115Z,59.94
2018-08-16T20:05:26.377Z,60.11
2018-08-16T20:07:54.665Z,60.10
2018-08-16T20:10:22.936Z,60.58
2018-08-16T20:12:51.205Z,60.07
2018-08-16T20:15:19.473Z,60.00
2018-08-16T20:17:47.776Z,60.13
2018-08-16T20:20:16.029Z,60.27
2018-08-16T20:22:44.349Z,59.52
2018-08-16T20:25:12.617Z,61.03
2018-08-16T20:27:40.885Z,60.84
2018-08-16T20:30:09.312Z,60.60
2018-08-16T20:32:37.549Z,61.48
2018-08-16T20:35:05.874Z,60.48
2018-08-16T20:37:34.157Z,61.40
2018-08-16T20:40:02.430Z,61.18
2018-08-16T20:42:30.730Z,61.47
2018-08-16T20:44:59.003Z,61.83
2018-08-16T20:47:27.368Z,61.72
2018-08-16T20:49:56.782Z,60.67
2018-08-16T20:52:25.037Z,61.04
2018-08-16T20:54:53.321Z,61.74
2018-08-16T20:57:21.621Z,61.72
2018-08-16T20:59:49.860Z,62.43
2018-08-16T21:02:18.113Z,62.92
2018-08-16T21:04:46.414Z,63.15
2018-08-16T21:07:14.704Z,63.84
2018-08-16T21:09:42.981Z,64.19
2018-08-16T21:12:11.229Z,64.60
2018-08-16T21:14:39.847Z,65.73
2018-08-16T21:17:08.226Z,65.62
2018-08-16T21:19:36.476Z,66.57
2018-08-16T21:22:04.804Z,66.63
2018-08-16T21:24:33.074Z,67.14
2018-08-16T21:27:01.346Z,67.51
2018-08-16T21:29:30.648Z,68.20
2018-08-16T21:31:59.025Z,69.38
2018-08-16T21:34:27.333Z,69.33
2018-08-16T21:36:55.565Z,68.99
2018-08-16T21:39:23.824Z,69.50
2018-08-16T21:41:52.149Z,70.68
2018-08-16T21:44:20.388Z,70.79
2018-08-16T21:46:48.781Z,70.93
2018-08-16T21:49:17.046Z,70.75
2018-08-16T21:51:45.347Z,70.79
2018-08-16T21:54:13.691Z,71.83
2018-08-16T21:56:41.974Z,72.17
2018-08-16T21:59:10.216Z,73.27
2018-08-16T22:01:38.554Z,73.20
2018-08-16T22:04:06.855Z,73.89
2018-08-16T22:06:46.590Z,74.55
2018-08-16T22:09:14.854Z,74.17
2018-08-16T22:11:43.137Z,73.97
2018-08-16T22:14:11.410Z,74.97
2018-08-16T22:16:39.658Z,75.57
2018-08-16T22:19:07.939Z,76.09
2018-08-16T22:21:36.179Z,76.00
2018-08-16T22:24:04.903Z,76.12
2018-08-16T22:26:33.158Z,76.20
2018-08-16T22:29:01.450Z,77.50
2018-08-16T22:31:30.177Z,76.86
2018-08-16T22:33:58.517Z,76.90
2018-08-16T22:36:26.733Z,77.32
2018-08-16T22:38:55.021Z,77.48
2018-08-16T22:41:23.280Z,77.08
2018-08-16T22:43:51.625Z,78.32
2018-08-16T22:46:19.979Z,78.37
2018-08-16T22:48:48.278Z,77.65
2018-08-16T22:51:16.553Z,78.23
2018-08-16T22:53:44.854Z,78.06
2018-08-16T22:56:13.110Z,78.43
2018-08-16T22:58:41.524Z,78.69
2018-08-16T23:01:09.838Z,78.40
2018-08-16T23:03:38.196Z,78.11
2018-08-16T23:06:07.662Z,79.14
2018-08-16T23:08:44.237Z,78.52
2018-08-16T23:11:13.565Z,78.69
2018-08-16T23:13:41.917Z,78.72
2018-08-16T23:16:10.287Z,79.26
2018-08-16T23:18:38.557Z,78.21
2018-08-16T23:21:06.974Z,79.00
2018-08-16T23:23:35.217Z,78.53
2018-08-16T23:26:03.573Z,78.52
2018-08-16T23:28:31.861Z,78.47
2018-08-16T23:31:00.149Z,78.99
2018-08-16T23:33:28.457Z,79.01
2018-08-16T23:35:56.782Z,79.05
2018-08-16T23:38:25.132Z,78.67
2018-08-16T23:40:53.465Z,79.45
2018-08-16T23:43:21.787Z,79.37
2018-08-16T23:45:50.165Z,79.09
2018-08-16T23:48:30.912Z,78.91
2018-08-16T23:51:02.845Z,79.04
2018-08-16T23:53:31.134Z,78.95
2018-08-16T23:56:00.469Z,79.53
2018-08-16T23:58:28.757Z,79.15
